Alexander, Arkansas
Current Conditions -  °F | °C
As of 11:53 AM on Wednesday 26 Nov 2014 (Local Time) from KLIT Reporting Station
Broken Clouds Broken Clouds  
Wind Chill: 50°   Ceiling: 25000
Heat Index: 50°   Visibility: 10mi
Dew Point: 32°   Wind: 8mph
Humidity: 50%   Direction: 260°W
Pressure: 30"   Gusts: NA
Location:  34.63°N, 92.44°W
Report Text: KLIT 261753Z 26007KT 10SM SCT110 BKN250 10/00 A3000 RMK AO2 SLP163 T01000000 10100 21006 58017
Loading
Personal Weather Stations






























Interactive Weather Map New forecast layout! Learn more

10-Day Weather Forecast

Advertisements
Track Severe Weather on mobile